sensor_id;sensor_type;location;lat;lon;timestamp;P1;durP1;ratioP1;P2;durP2;ratioP2
13708;SDS011;54933;51.908;7.730;2023-07-13T00:01:50;0.40;;;0.40;;
13708;SDS011;54933;51.908;7.730;2023-07-13T00:04:17;1.93;;;0.80;;
13708;SDS011;54933;51.908;7.730;2023-07-13T00:06:43;0.97;;;0.40;;
13708;SDS011;54933;51.908;7.730;2023-07-13T00:09:10;0.50;;;0.50;;
13708;SDS011;54933;51.908;7.730;2023-07-13T00:11:39;1.33;;;0.60;;
13708;SDS011;54933;51.908;7.730;2023-07-13T00:14:05;0.40;;;0.40;;
13708;SDS011;54933;51.908;7.730;2023-07-13T00:16:32;1.60;;;0.50;;
13708;SDS011;54933;51.908;7.730;2023-07-13T00:18:59;0.83;;;0.50;;
13708;SDS011;54933;51.908;7.730;2023-07-13T00:21:25;0.73;;;0.40;;
13708;SDS011;54933;51.908;7.730;2023-07-13T00:23:50;0.70;;;0.70;;
13708;SDS011;54933;51.908;7.730;2023-07-13T00:26:16;0.50;;;0.50;;
13708;SDS011;54933;51.908;7.730;2023-07-13T00:28:42;0.53;;;0.40;;
13708;SDS011;54933;51.908;7.730;2023-07-13T00:31:08;0.33;;;0.33;;
13708;SDS011;54933;51.908;7.730;2023-07-13T00:33:34;0.93;;;0.60;;
13708;SDS011;54933;51.908;7.730;2023-07-13T00:35:59;0.50;;;0.50;;
13708;SDS011;54933;51.908;7.730;2023-07-13T00:38:25;0.73;;;0.50;;
13708;SDS011;54933;51.908;7.730;2023-07-13T00:40:50;0.77;;;0.53;;
13708;SDS011;54933;51.908;7.730;2023-07-13T00:43:16;1.17;;;0.50;;
13708;SDS011;54933;51.908;7.730;2023-07-13T00:48:09;0.50;;;0.50;;
13708;SDS011;54933;51.908;7.730;2023-07-13T00:50:39;1.70;;;0.60;;
13708;SDS011;54933;51.908;7.730;2023-07-13T00:53:06;1.17;;;0.50;;
13708;SDS011;54933;51.908;7.730;2023-07-13T00:55:32;0.50;;;0.50;;
13708;SDS011;54933;51.908;7.730;2023-07-13T00:57:59;0.57;;;0.57;;
13708;SDS011;54933;51.908;7.730;2023-07-13T01:00:24;0.60;;;0.60;;
13708;SDS011;54933;51.908;7.730;2023-07-13T01:02:52;0.60;;;0.60;;
13708;SDS011;54933;51.908;7.730;2023-07-13T01:05:18;0.67;;;0.67;;
13708;SDS011;54933;51.908;7.730;2023-07-13T01:07:47;0.53;;;0.53;;
13708;SDS011;54933;51.908;7.730;2023-07-13T01:10:16;0.50;;;0.50;;
13708;SDS011;54933;51.908;7.730;2023-07-13T01:12:46;0.67;;;0.63;;
13708;SDS011;54933;51.908;7.730;2023-07-13T01:15:33;0.50;;;0.50;;
13708;SDS011;54933;51.908;7.730;2023-07-13T01:18:11;0.50;;;0.50;;
13708;SDS011;54933;51.908;7.730;2023-07-13T01:20:40;0.40;;;0.40;;
13708;SDS011;54933;51.908;7.730;2023-07-13T01:23:08;0.40;;;0.40;;
13708;SDS011;54933;51.908;7.730;2023-07-13T01:25:35;0.30;;;0.30;;
13708;SDS011;54933;51.908;7.730;2023-07-13T01:28:02;2.30;;;1.17;;
13708;SDS011;54933;51.908;7.730;2023-07-13T01:30:28;0.60;;;0.60;;
13708;SDS011;54933;51.908;7.730;2023-07-13T01:32:54;0.60;;;0.60;;
13708;SDS011;54933;51.908;7.730;2023-07-13T01:35:19;1.63;;;0.83;;
13708;SDS011;54933;51.908;7.730;2023-07-13T01:37:44;0.50;;;0.50;;
13708;SDS011;54933;51.908;7.730;2023-07-13T01:40:10;1.37;;;0.40;;
13708;SDS011;54933;51.908;7.730;2023-07-13T01:42:37;1.07;;;0.40;;
13708;SDS011;54933;51.908;7.730;2023-07-13T01:45:03;1.43;;;0.50;;
13708;SDS011;54933;51.908;7.730;2023-07-13T01:47:28;0.83;;;0.50;;
13708;SDS011;54933;51.908;7.730;2023-07-13T01:49:55;0.50;;;0.50;;
13708;SDS011;54933;51.908;7.730;2023-07-13T01:52:21;0.33;;;0.33;;
13708;SDS011;54933;51.908;7.730;2023-07-13T01:54:46;0.50;;;0.50;;
13708;SDS011;54933;51.908;7.730;2023-07-13T01:57:11;0.50;;;0.50;;
13708;SDS011;54933;51.908;7.730;2023-07-13T01:59:36;0.67;;;0.60;;
13708;SDS011;54933;51.908;7.730;2023-07-13T02:02:02;0.97;;;0.53;;
13708;SDS011;54933;51.908;7.730;2023-07-13T02:04:27;2.40;;;0.50;;
13708;SDS011;54933;51.908;7.730;2023-07-13T02:06:52;0.40;;;0.40;;
13708;SDS011;54933;51.908;7.730;2023-07-13T02:09:17;0.50;;;0.50;;
13708;SDS011;54933;51.908;7.730;2023-07-13T02:11:43;0.97;;;0.40;;
13708;SDS011;54933;51.908;7.730;2023-07-13T02:14:08;0.40;;;0.40;;
13708;SDS011;54933;51.908;7.730;2023-07-13T02:16:33;0.53;;;0.50;;
13708;SDS011;54933;51.908;7.730;2023-07-13T02:18:58;0.40;;;0.40;;
13708;SDS011;54933;51.908;7.730;2023-07-13T02:21:25;0.50;;;0.50;;
13708;SDS011;54933;51.908;7.730;2023-07-13T02:23:50;0.43;;;0.43;;
13708;SDS011;54933;51.908;7.730;2023-07-13T02:26:16;0.47;;;0.47;;
13708;SDS011;54933;51.908;7.730;2023-07-13T02:28:41;0.40;;;0.40;;
13708;SDS011;54933;51.908;7.730;2023-07-13T02:31:07;0.23;;;0.23;;
13708;SDS011;54933;51.908;7.730;2023-07-13T02:33:35;0.60;;;0.60;;
13708;SDS011;54933;51.908;7.730;2023-07-13T02:36:00;0.60;;;0.60;;
13708;SDS011;54933;51.908;7.730;2023-07-13T02:38:25;0.50;;;0.50;;
13708;SDS011;54933;51.908;7.730;2023-07-13T02:40:51;0.53;;;0.53;;
13708;SDS011;54933;51.908;7.730;2023-07-13T02:43:16;0.60;;;0.60;;
13708;SDS011;54933;51.908;7.730;2023-07-13T02:45:44;0.50;;;0.50;;
13708;SDS011;54933;51.908;7.730;2023-07-13T02:48:10;0.63;;;0.43;;
13708;SDS011;54933;51.908;7.730;2023-07-13T02:50:36;0.50;;;0.50;;
13708;SDS011;54933;51.908;7.730;2023-07-13T02:53:01;0.40;;;0.40;;
13708;SDS011;54933;51.908;7.730;2023-07-13T02:55:26;1.07;;;0.50;;
13708;SDS011;54933;51.908;7.730;2023-07-13T02:57:51;0.87;;;0.50;;
13708;SDS011;54933;51.908;7.730;2023-07-13T03:00:17;0.40;;;0.40;;
13708;SDS011;54933;51.908;7.730;2023-07-13T03:02:42;0.50;;;0.50;;
13708;SDS011;54933;51.908;7.730;2023-07-13T03:05:08;0.50;;;0.50;;
13708;SDS011;54933;51.908;7.730;2023-07-13T03:07:37;0.40;;;0.40;;
13708;SDS011;54933;51.908;7.730;2023-07-13T03:10:03;0.50;;;0.50;;
13708;SDS011;54933;51.908;7.730;2023-07-13T03:12:28;0.50;;;0.50;;
13708;SDS011;54933;51.908;7.730;2023-07-13T03:14:54;1.23;;;0.40;;
13708;SDS011;54933;51.908;7.730;2023-07-13T03:17:19;0.47;;;0.47;;
13708;SDS011;54933;51.908;7.730;2023-07-13T03:19:44;0.50;;;0.37;;
13708;SDS011;54933;51.908;7.730;2023-07-13T03:22:10;0.53;;;0.53;;
13708;SDS011;54933;51.908;7.730;2023-07-13T03:24:35;0.33;;;0.33;;
13708;SDS011;54933;51.908;7.730;2023-07-13T03:27:03;0.50;;;0.50;;
13708;SDS011;54933;51.908;7.730;2023-07-13T03:29:29;0.30;;;0.30;;
13708;SDS011;54933;51.908;7.730;2023-07-13T03:31:54;0.40;;;0.40;;
13708;SDS011;54933;51.908;7.730;2023-07-13T03:34:20;0.30;;;0.30;;
13708;SDS011;54933;51.908;7.730;2023-07-13T03:36:45;0.30;;;0.30;;
13708;SDS011;54933;51.908;7.730;2023-07-13T03:39:10;0.40;;;0.40;;
13708;SDS011;54933;51.908;7.730;2023-07-13T03:41:36;0.40;;;0.40;;
13708;SDS011;54933;51.908;7.730;2023-07-13T03:44:01;0.40;;;0.40;;
13708;SDS011;54933;51.908;7.730;2023-07-13T03:46:27;0.57;;;0.57;;
13708;SDS011;54933;51.908;7.730;2023-07-13T03:48:52;0.43;;;0.43;;
13708;SDS011;54933;51.908;7.730;2023-07-13T03:51:18;0.40;;;0.40;;
13708;SDS011;54933;51.908;7.730;2023-07-13T03:53:45;6.03;;;0.60;;
13708;SDS011;54933;51.908;7.730;2023-07-13T03:56:11;0.40;;;0.40;;
13708;SDS011;54933;51.908;7.730;2023-07-13T03:58:40;0.40;;;0.40;;
13708;SDS011;54933;51.908;7.730;2023-07-13T04:01:07;0.50;;;0.50;;
13708;SDS011;54933;51.908;7.730;2023-07-13T04:03:33;0.40;;;0.40;;
13708;SDS011;54933;51.908;7.730;2023-07-13T04:06:00;0.53;;;0.53;;
13708;SDS011;54933;51.908;7.730;2023-07-13T04:08:30;0.40;;;0.40;;
13708;SDS011;54933;51.908;7.730;2023-07-13T04:10:56;0.37;;;0.37;;
13708;SDS011;54933;51.908;7.730;2023-07-13T04:13:23;0.30;;;0.30;;
13708;SDS011;54933;51.908;7.730;2023-07-13T04:15:49;0.43;;;0.43;;
13708;SDS011;54933;51.908;7.730;2023-07-13T04:18:14;0.43;;;0.43;;
13708;SDS011;54933;51.908;7.730;2023-07-13T04:20:39;1.83;;;0.40;;
13708;SDS011;54933;51.908;7.730;2023-07-13T04:23:05;0.50;;;0.50;;
13708;SDS011;54933;51.908;7.730;2023-07-13T04:25:30;0.50;;;0.50;;
13708;SDS011;54933;51.908;7.730;2023-07-13T04:27:55;0.50;;;0.50;;
13708;SDS011;54933;51.908;7.730;2023-07-13T04:30:21;0.83;;;0.40;;
13708;SDS011;54933;51.908;7.730;2023-07-13T04:32:47;0.37;;;0.37;;
13708;SDS011;54933;51.908;7.730;2023-07-13T04:35:13;2.10;;;0.60;;
13708;SDS011;54933;51.908;7.730;2023-07-13T04:37:39;0.60;;;0.60;;
13708;SDS011;54933;51.908;7.730;2023-07-13T04:40:04;0.50;;;0.50;;
13708;SDS011;54933;51.908;7.730;2023-07-13T04:42:31;0.70;;;0.47;;
13708;SDS011;54933;51.908;7.730;2023-07-13T04:44:56;0.43;;;0.40;;
13708;SDS011;54933;51.908;7.730;2023-07-13T04:47:21;0.83;;;0.50;;
13708;SDS011;54933;51.908;7.730;2023-07-13T04:49:47;0.50;;;0.50;;
13708;SDS011;54933;51.908;7.730;2023-07-13T04:52:12;0.40;;;0.40;;
13708;SDS011;54933;51.908;7.730;2023-07-13T04:54:38;1.27;;;0.70;;
13708;SDS011;54933;51.908;7.730;2023-07-13T04:57:04;1.37;;;0.60;;
13708;SDS011;54933;51.908;7.730;2023-07-13T04:59:31;3.50;;;0.60;;
13708;SDS011;54933;51.908;7.730;2023-07-13T05:02:00;2.57;;;0.50;;
13708;SDS011;54933;51.908;7.730;2023-07-13T05:04:26;0.63;;;0.57;;
13708;SDS011;54933;51.908;7.730;2023-07-13T05:06:52;2.27;;;0.70;;
13708;SDS011;54933;51.908;7.730;2023-07-13T05:09:17;0.70;;;0.70;;
13708;SDS011;54933;51.908;7.730;2023-07-13T05:11:43;2.43;;;0.60;;
13708;SDS011;54933;51.908;7.730;2023-07-13T05:14:08;1.43;;;0.50;;
13708;SDS011;54933;51.908;7.730;2023-07-13T05:16:34;1.57;;;0.50;;
13708;SDS011;54933;51.908;7.730;2023-07-13T05:19:00;2.13;;;0.30;;
13708;SDS011;54933;51.908;7.730;2023-07-13T05:21:25;1.60;;;0.30;;
13708;SDS011;54933;51.908;7.730;2023-07-13T05:23:50;16.70;;;1.40;;
13708;SDS011;54933;51.908;7.730;2023-07-13T05:26:15;2.13;;;0.70;;
13708;SDS011;54933;51.908;7.730;2023-07-13T05:28:41;32.53;;;1.90;;
13708;SDS011;54933;51.908;7.730;2023-07-13T05:31:07;0.80;;;0.60;;
13708;SDS011;54933;51.908;7.730;2023-07-13T05:33:34;25.53;;;2.83;;
13708;SDS011;54933;51.908;7.730;2023-07-13T05:35:59;18.37;;;2.77;;
13708;SDS011;54933;51.908;7.730;2023-07-13T05:38:25;38.57;;;4.03;;
13708;SDS011;54933;51.908;7.730;2023-07-13T05:40:53;16.27;;;1.83;;
13708;SDS011;54933;51.908;7.730;2023-07-13T05:43:20;62.20;;;4.83;;
13708;SDS011;54933;51.908;7.730;2023-07-13T05:45:45;38.07;;;4.73;;
13708;SDS011;54933;51.908;7.730;2023-07-13T05:48:11;32.47;;;5.20;;
13708;SDS011;54933;51.908;7.730;2023-07-13T05:50:36;128.00;;;9.93;;
13708;SDS011;54933;51.908;7.730;2023-07-13T05:53:01;70.50;;;6.53;;
13708;SDS011;54933;51.908;7.730;2023-07-13T05:55:27;90.53;;;9.73;;
13708;SDS011;54933;51.908;7.730;2023-07-13T05:57:52;75.97;;;7.53;;
13708;SDS011;54933;51.908;7.730;2023-07-13T06:00:17;69.73;;;6.33;;
13708;SDS011;54933;51.908;7.730;2023-07-13T06:02:43;37.97;;;4.73;;
13708;SDS011;54933;51.908;7.730;2023-07-13T06:05:08;37.03;;;3.83;;
13708;SDS011;54933;51.908;7.730;2023-07-13T06:07:34;45.80;;;5.23;;
13708;SDS011;54933;51.908;7.730;2023-07-13T06:09:59;43.87;;;3.73;;
13708;SDS011;54933;51.908;7.730;2023-07-13T06:12:24;31.57;;;3.90;;
13708;SDS011;54933;51.908;7.730;2023-07-13T06:14:50;37.87;;;4.70;;
13708;SDS011;54933;51.908;7.730;2023-07-13T06:17:16;28.20;;;2.83;;
13708;SDS011;54933;51.908;7.730;2023-07-13T06:19:41;13.00;;;2.03;;
13708;SDS011;54933;51.908;7.730;2023-07-13T06:22:06;20.90;;;2.20;;
13708;SDS011;54933;51.908;7.730;2023-07-13T06:24:32;19.73;;;2.30;;
13708;SDS011;54933;51.908;7.730;2023-07-13T06:26:57;21.47;;;2.83;;
13708;SDS011;54933;51.908;7.730;2023-07-13T06:29:22;14.10;;;2.17;;
13708;SDS011;54933;51.908;7.730;2023-07-13T06:31:47;25.33;;;2.97;;
13708;SDS011;54933;51.908;7.730;2023-07-13T06:34:13;32.10;;;3.27;;
13708;SDS011;54933;51.908;7.730;2023-07-13T06:36:38;13.27;;;2.43;;
13708;SDS011;54933;51.908;7.730;2023-07-13T06:39:03;15.40;;;3.73;;
13708;SDS011;54933;51.908;7.730;2023-07-13T06:41:29;18.97;;;2.53;;
13708;SDS011;54933;51.908;7.730;2023-07-13T06:43:55;12.43;;;1.93;;
13708;SDS011;54933;51.908;7.730;2023-07-13T06:46:21;19.53;;;2.00;;
13708;SDS011;54933;51.908;7.730;2023-07-13T06:48:47;16.23;;;2.67;;
13708;SDS011;54933;51.908;7.730;2023-07-13T06:51:12;13.17;;;1.87;;
13708;SDS011;54933;51.908;7.730;2023-07-13T06:53:38;9.60;;;2.00;;
13708;SDS011;54933;51.908;7.730;2023-07-13T06:56:03;10.80;;;2.00;;
13708;SDS011;54933;51.908;7.730;2023-07-13T06:58:28;16.67;;;2.67;;
13708;SDS011;54933;51.908;7.730;2023-07-13T07:00:54;11.53;;;2.23;;
13708;SDS011;54933;51.908;7.730;2023-07-13T07:03:19;13.53;;;2.20;;
13708;SDS011;54933;51.908;7.730;2023-07-13T07:05:44;9.20;;;2.00;;
13708;SDS011;54933;51.908;7.730;2023-07-13T07:08:10;6.30;;;1.60;;
13708;SDS011;54933;51.908;7.730;2023-07-13T07:10:35;7.00;;;1.93;;
13708;SDS011;54933;51.908;7.730;2023-07-13T07:13:01;9.13;;;2.00;;
13708;SDS011;54933;51.908;7.730;2023-07-13T07:15:26;6.63;;;1.73;;
13708;SDS011;54933;51.908;7.730;2023-07-13T07:17:52;7.93;;;1.70;;
13708;SDS011;54933;51.908;7.730;2023-07-13T07:20:17;5.43;;;1.97;;
13708;SDS011;54933;51.908;7.730;2023-07-13T07:22:42;4.73;;;1.60;;
13708;SDS011;54933;51.908;7.730;2023-07-13T07:25:08;4.73;;;1.50;;
13708;SDS011;54933;51.908;7.730;2023-07-13T07:27:33;8.63;;;1.73;;
13708;SDS011;54933;51.908;7.730;2023-07-13T07:29:59;6.30;;;1.70;;
13708;SDS011;54933;51.908;7.730;2023-07-13T07:32:24;4.53;;;1.50;;
13708;SDS011;54933;51.908;7.730;2023-07-13T07:34:50;4.20;;;1.33;;
13708;SDS011;54933;51.908;7.730;2023-07-13T07:37:15;7.30;;;1.73;;
13708;SDS011;54933;51.908;7.730;2023-07-13T07:39:42;5.20;;;1.60;;
13708;SDS011;54933;51.908;7.730;2023-07-13T07:42:07;4.23;;;1.30;;
13708;SDS011;54933;51.908;7.730;2023-07-13T07:44:33;2.87;;;1.43;;
13708;SDS011;54933;51.908;7.730;2023-07-13T07:46:59;5.00;;;1.53;;
13708;SDS011;54933;51.908;7.730;2023-07-13T07:49:24;4.60;;;1.40;;
13708;SDS011;54933;51.908;7.730;2023-07-13T07:51:50;7.87;;;1.50;;
13708;SDS011;54933;51.908;7.730;2023-07-13T07:54:15;3.73;;;1.40;;
13708;SDS011;54933;51.908;7.730;2023-07-13T07:56:41;1.50;;;1.10;;
13708;SDS011;54933;51.908;7.730;2023-07-13T07:59:07;3.47;;;1.43;;
13708;SDS011;54933;51.908;7.730;2023-07-13T08:01:32;4.43;;;1.53;;
13708;SDS011;54933;51.908;7.730;2023-07-13T08:03:57;3.10;;;1.53;;
13708;SDS011;54933;51.908;7.730;2023-07-13T08:06:23;1.90;;;1.10;;
13708;SDS011;54933;51.908;7.730;2023-07-13T08:08:48;3.83;;;1.23;;
13708;SDS011;54933;51.908;7.730;2023-07-13T08:11:13;1.43;;;1.30;;
13708;SDS011;54933;51.908;7.730;2023-07-13T08:13:39;2.43;;;1.03;;
13708;SDS011;54933;51.908;7.730;2023-07-13T08:16:05;5.03;;;0.93;;
13708;SDS011;54933;51.908;7.730;2023-07-13T08:18:31;3.73;;;1.27;;
13708;SDS011;54933;51.908;7.730;2023-07-13T08:20:56;4.03;;;1.10;;
13708;SDS011;54933;51.908;7.730;2023-07-13T08:23:22;6.87;;;1.20;;
13708;SDS011;54933;51.908;7.730;2023-07-13T08:25:51;7.20;;;1.60;;
13708;SDS011;54933;51.908;7.730;2023-07-13T08:28:17;2.10;;;1.40;;
13708;SDS011;54933;51.908;7.730;2023-07-13T08:30:43;3.37;;;1.17;;
13708;SDS011;54933;51.908;7.730;2023-07-13T08:33:08;1.53;;;1.13;;
13708;SDS011;54933;51.908;7.730;2023-07-13T08:35:34;3.57;;;1.03;;
13708;SDS011;54933;51.908;7.730;2023-07-13T08:37:59;5.13;;;0.90;;
13708;SDS011;54933;51.908;7.730;2023-07-13T08:40:25;3.33;;;1.53;;
13708;SDS011;54933;51.908;7.730;2023-07-13T08:42:57;1.43;;;1.00;;
13708;SDS011;54933;51.908;7.730;2023-07-13T08:45:32;1.23;;;0.90;;
13708;SDS011;54933;51.908;7.730;2023-07-13T08:51:04;1.40;;;0.90;;
13708;SDS011;54933;51.908;7.730;2023-07-13T08:53:35;1.20;;;1.00;;
13708;SDS011;54933;51.908;7.730;2023-07-13T08:56:04;2.70;;;1.10;;
13708;SDS011;54933;51.908;7.730;2023-07-13T08:58:36;2.43;;;1.00;;
13708;SDS011;54933;51.908;7.730;2023-07-13T09:09:26;1.13;;;0.93;;
13708;SDS011;54933;51.908;7.730;2023-07-13T09:14:56;1.10;;;1.00;;
13708;SDS011;54933;51.908;7.730;2023-07-13T09:17:25;2.53;;;1.00;;
13708;SDS011;54933;51.908;7.730;2023-07-13T09:19:58;2.30;;;0.80;;
13708;SDS011;54933;51.908;7.730;2023-07-13T09:22:28;0.70;;;0.70;;
13708;SDS011;54933;51.908;7.730;2023-07-13T09:25:05;1.37;;;1.00;;
13708;SDS011;54933;51.908;7.730;2023-07-13T09:27:39;2.90;;;0.90;;
13708;SDS011;54933;51.908;7.730;2023-07-13T09:30:49;0.70;;;0.67;;
13708;SDS011;54933;51.908;7.730;2023-07-13T09:32:59;1.60;;;0.80;;
13708;SDS011;54933;51.908;7.730;2023-07-13T09:35:25;2.00;;;0.80;;
13708;SDS011;54933;51.908;7.730;2023-07-13T09:37:56;2.20;;;0.93;;
13708;SDS011;54933;51.908;7.730;2023-07-13T09:40:24;0.83;;;0.83;;
13708;SDS011;54933;51.908;7.730;2023-07-13T09:42:57;1.47;;;1.00;;
13708;SDS011;54933;51.908;7.730;2023-07-13T09:45:27;1.37;;;0.73;;
13708;SDS011;54933;51.908;7.730;2023-07-13T09:48:04;0.77;;;0.77;;
13708;SDS011;54933;51.908;7.730;2023-07-13T09:50:38;0.67;;;0.63;;
13708;SDS011;54933;51.908;7.730;2023-07-13T09:53:04;2.27;;;1.07;;
13708;SDS011;54933;51.908;7.730;2023-07-13T09:55:37;1.93;;;1.13;;
13708;SDS011;54933;51.908;7.730;2023-07-13T09:58:04;2.20;;;0.97;;
13708;SDS011;54933;51.908;7.730;2023-07-13T10:00:34;0.80;;;0.80;;
13708;SDS011;54933;51.908;7.730;2023-07-13T10:05:28;2.10;;;0.70;;
13708;SDS011;54933;51.908;7.730;2023-07-13T10:08:02;0.97;;;0.60;;
13708;SDS011;54933;51.908;7.730;2023-07-13T10:10:27;0.90;;;0.90;;
13708;SDS011;54933;51.908;7.730;2023-07-13T10:12:53;0.63;;;0.63;;
13708;SDS011;54933;51.908;7.730;2023-07-13T10:15:22;1.07;;;0.80;;
13708;SDS011;54933;51.908;7.730;2023-07-13T10:17:51;0.90;;;0.80;;
13708;SDS011;54933;51.908;7.730;2023-07-13T10:20:17;3.00;;;0.60;;
13708;SDS011;54933;51.908;7.730;2023-07-13T10:22:49;0.67;;;0.67;;
13708;SDS011;54933;51.908;7.730;2023-07-13T10:25:20;214.53;;;13.60;;
13708;SDS011;54933;51.908;7.730;2023-07-13T10:28:00;40.23;;;6.00;;
13708;SDS011;54933;51.908;7.730;2023-07-13T10:30:32;44.07;;;5.03;;
13708;SDS011;54933;51.908;7.730;2023-07-13T10:33:03;35.33;;;5.33;;
13708;SDS011;54933;51.908;7.730;2023-07-13T10:35:36;29.70;;;3.73;;
13708;SDS011;54933;51.908;7.730;2023-07-13T10:38:14;26.67;;;3.73;;
13708;SDS011;54933;51.908;7.730;2023-07-13T10:40:47;27.53;;;5.77;;
13708;SDS011;54933;51.908;7.730;2023-07-13T10:43:31;27.60;;;3.30;;
13708;SDS011;54933;51.908;7.730;2023-07-13T10:46:01;15.50;;;2.80;;
13708;SDS011;54933;51.908;7.730;2023-07-13T10:48:28;13.37;;;3.00;;
13708;SDS011;54933;51.908;7.730;2023-07-13T10:50:57;12.97;;;2.40;;
13708;SDS011;54933;51.908;7.730;2023-07-13T10:53:29;14.87;;;2.50;;
13708;SDS011;54933;51.908;7.730;2023-07-13T10:55:58;14.93;;;2.67;;
13708;SDS011;54933;51.908;7.730;2023-07-13T10:58:31;11.93;;;2.87;;
13708;SDS011;54933;51.908;7.730;2023-07-13T11:01:08;13.20;;;2.43;;
13708;SDS011;54933;51.908;7.730;2023-07-13T11:06:43;8.77;;;1.80;;
13708;SDS011;54933;51.908;7.730;2023-07-13T11:09:18;9.57;;;2.23;;
13708;SDS011;54933;51.908;7.730;2023-07-13T11:11:44;7.60;;;2.17;;
13708;SDS011;54933;51.908;7.730;2023-07-13T11:22:47;11.47;;;2.23;;
13708;SDS011;54933;51.908;7.730;2023-07-13T11:25:21;7.43;;;1.73;;
13708;SDS011;54933;51.908;7.730;2023-07-13T11:28:29;8.97;;;1.70;;
13708;SDS011;54933;51.908;7.730;2023-07-13T11:33:25;3.57;;;1.33;;
13708;SDS011;54933;51.908;7.730;2023-07-13T11:36:14;3.33;;;1.60;;
13708;SDS011;54933;51.908;7.730;2023-07-13T11:41:37;2.17;;;1.30;;
13708;SDS011;54933;51.908;7.730;2023-07-13T11:44:11;7.87;;;1.67;;
13708;SDS011;54933;51.908;7.730;2023-07-13T11:46:44;3.17;;;1.67;;
13708;SDS011;54933;51.908;7.730;2023-07-13T11:49:11;4.93;;;1.67;;
13708;SDS011;54933;51.908;7.730;2023-07-13T11:51:40;4.37;;;1.57;;
13708;SDS011;54933;51.908;7.730;2023-07-13T11:54:11;1.93;;;1.37;;
13708;SDS011;54933;51.908;7.730;2023-07-13T11:56:46;2.53;;;1.40;;
13708;SDS011;54933;51.908;7.730;2023-07-13T11:59:11;3.87;;;1.47;;
13708;SDS011;54933;51.908;7.730;2023-07-13T12:01:42;3.70;;;1.53;;
13708;SDS011;54933;51.908;7.730;2023-07-13T12:04:27;3.57;;;1.43;;
13708;SDS011;54933;51.908;7.730;2023-07-13T12:06:57;4.30;;;1.30;;
13708;SDS011;54933;51.908;7.730;2023-07-13T12:09:28;4.73;;;1.30;;
13708;SDS011;54933;51.908;7.730;2023-07-13T12:11:54;2.93;;;1.70;;
13708;SDS011;54933;51.908;7.730;2023-07-13T12:14:21;1.63;;;1.10;;
13708;SDS011;54933;51.908;7.730;2023-07-13T12:16:49;2.63;;;1.10;;
13708;SDS011;54933;51.908;7.730;2023-07-13T12:21:53;1.70;;;1.50;;
13708;SDS011;54933;51.908;7.730;2023-07-13T12:24:21;3.70;;;1.43;;
13708;SDS011;54933;51.908;7.730;2023-07-13T12:26:51;2.60;;;1.17;;
13708;SDS011;54933;51.908;7.730;2023-07-13T12:29:19;1.63;;;1.43;;
13708;SDS011;54933;51.908;7.730;2023-07-13T12:31:45;2.33;;;1.30;;
13708;SDS011;54933;51.908;7.730;2023-07-13T12:34:14;3.33;;;1.40;;
13708;SDS011;54933;51.908;7.730;2023-07-13T12:36:51;2.80;;;1.30;;
13708;SDS011;54933;51.908;7.730;2023-07-13T12:41:48;3.53;;;1.20;;
13708;SDS011;54933;51.908;7.730;2023-07-13T12:44:16;1.63;;;0.90;;
13708;SDS011;54933;51.908;7.730;2023-07-13T12:46:55;2.23;;;1.17;;
13708;SDS011;54933;51.908;7.730;2023-07-13T12:49:30;1.80;;;1.20;;
13708;SDS011;54933;51.908;7.730;2023-07-13T12:52:00;2.60;;;1.03;;
13708;SDS011;54933;51.908;7.730;2023-07-13T12:54:28;5.33;;;1.00;;
13708;SDS011;54933;51.908;7.730;2023-07-13T12:56:54;1.77;;;1.10;;
13708;SDS011;54933;51.908;7.730;2023-07-13T12:59:23;3.20;;;1.03;;
13708;SDS011;54933;51.908;7.730;2023-07-13T13:01:53;1.43;;;1.20;;
13708;SDS011;54933;51.908;7.730;2023-07-13T13:04:18;1.50;;;1.40;;
13708;SDS011;54933;51.908;7.730;2023-07-13T13:06:46;0.73;;;0.73;;
13708;SDS011;54933;51.908;7.730;2023-07-13T13:09:13;1.53;;;1.17;;
13708;SDS011;54933;51.908;7.730;2023-07-13T13:11:41;1.30;;;1.20;;
13708;SDS011;54933;51.908;7.730;2023-07-13T13:14:07;1.30;;;1.20;;
13708;SDS011;54933;51.908;7.730;2023-07-13T13:16:34;1.73;;;1.10;;
13708;SDS011;54933;51.908;7.730;2023-07-13T13:19:13;1.83;;;1.57;;
13708;SDS011;54933;51.908;7.730;2023-07-13T13:21:42;2.30;;;1.33;;
13708;SDS011;54933;51.908;7.730;2023-07-13T13:24:12;2.33;;;1.20;;
13708;SDS011;54933;51.908;7.730;2023-07-13T13:26:39;1.23;;;1.00;;
13708;SDS011;54933;51.908;7.730;2023-07-13T13:29:12;2.10;;;1.17;;
13708;SDS011;54933;51.908;7.730;2023-07-13T13:31:39;1.37;;;1.27;;
13708;SDS011;54933;51.908;7.730;2023-07-13T13:34:07;1.63;;;1.20;;
13708;SDS011;54933;51.908;7.730;2023-07-13T13:36:34;1.00;;;1.00;;
13708;SDS011;54933;51.908;7.730;2023-07-13T13:39:00;0.97;;;0.97;;
13708;SDS011;54933;51.908;7.730;2023-07-13T13:41:26;3.30;;;1.07;;
13708;SDS011;54933;51.908;7.730;2023-07-13T13:43:52;1.23;;;1.10;;
13708;SDS011;54933;51.908;7.730;2023-07-13T13:46:21;2.37;;;0.93;;
13708;SDS011;54933;51.908;7.730;2023-07-13T13:48:50;2.50;;;0.90;;
13708;SDS011;54933;51.908;7.730;2023-07-13T13:51:19;3.03;;;1.00;;
13708;SDS011;54933;51.908;7.730;2023-07-13T13:53:46;0.87;;;0.87;;
13708;SDS011;54933;51.908;7.730;2023-07-13T13:56:13;1.50;;;1.00;;
13708;SDS011;54933;51.908;7.730;2023-07-13T13:58:39;3.70;;;0.93;;
13708;SDS011;54933;51.908;7.730;2023-07-13T14:01:09;1.20;;;1.07;;
13708;SDS011;54933;51.908;7.730;2023-07-13T14:03:39;2.07;;;0.80;;
13708;SDS011;54933;51.908;7.730;2023-07-13T14:06:04;1.67;;;0.97;;
13708;SDS011;54933;51.908;7.730;2023-07-13T14:08:30;2.03;;;0.90;;
13708;SDS011;54933;51.908;7.730;2023-07-13T14:10:56;3.63;;;1.07;;
13708;SDS011;54933;51.908;7.730;2023-07-13T14:13:27;1.47;;;1.10;;
13708;SDS011;54933;51.908;7.730;2023-07-13T14:15:56;1.30;;;1.10;;
13708;SDS011;54933;51.908;7.730;2023-07-13T14:18:21;0.90;;;0.90;;
13708;SDS011;54933;51.908;7.730;2023-07-13T14:20:47;1.90;;;1.07;;
13708;SDS011;54933;51.908;7.730;2023-07-13T14:23:13;3.20;;;1.13;;
13708;SDS011;54933;51.908;7.730;2023-07-13T14:25:40;3.40;;;0.93;;
13708;SDS011;54933;51.908;7.730;2023-07-13T14:28:27;3.90;;;1.13;;
13708;SDS011;54933;51.908;7.730;2023-07-13T14:30:52;0.80;;;0.80;;
13708;SDS011;54933;51.908;7.730;2023-07-13T14:33:19;1.37;;;1.00;;
13708;SDS011;54933;51.908;7.730;2023-07-13T14:35:45;0.93;;;0.93;;
13708;SDS011;54933;51.908;7.730;2023-07-13T14:38:11;1.33;;;1.07;;
13708;SDS011;54933;51.908;7.730;2023-07-13T14:40:40;1.00;;;1.00;;
13708;SDS011;54933;51.908;7.730;2023-07-13T14:43:08;3.03;;;1.20;;
13708;SDS011;54933;51.908;7.730;2023-07-13T14:45:38;5.47;;;1.03;;
13708;SDS011;54933;51.908;7.730;2023-07-13T14:48:24;0.80;;;0.80;;
13708;SDS011;54933;51.908;7.730;2023-07-13T14:50:55;3.97;;;1.10;;
13708;SDS011;54933;51.908;7.730;2023-07-13T14:53:22;1.43;;;1.00;;
13708;SDS011;54933;51.908;7.730;2023-07-13T14:55:48;0.90;;;0.90;;
13708;SDS011;54933;51.908;7.730;2023-07-13T14:58:13;3.13;;;0.87;;
13708;SDS011;54933;51.908;7.730;2023-07-13T15:00:38;0.90;;;0.90;;
13708;SDS011;54933;51.908;7.730;2023-07-13T15:03:05;1.20;;;0.73;;
13708;SDS011;54933;51.908;7.730;2023-07-13T15:05:49;1.07;;;0.90;;
13708;SDS011;54933;51.908;7.730;2023-07-13T15:08:14;0.93;;;0.90;;
13708;SDS011;54933;51.908;7.730;2023-07-13T15:10:40;1.93;;;1.00;;
13708;SDS011;54933;51.908;7.730;2023-07-13T15:13:13;1.00;;;1.00;;
13708;SDS011;54933;51.908;7.730;2023-07-13T15:15:51;1.70;;;1.10;;
13708;SDS011;54933;51.908;7.730;2023-07-13T15:18:19;1.33;;;0.90;;
13708;SDS011;54933;51.908;7.730;2023-07-13T15:20:47;3.80;;;1.10;;
13708;SDS011;54933;51.908;7.730;2023-07-13T15:23:14;1.00;;;0.80;;
13708;SDS011;54933;51.908;7.730;2023-07-13T15:25:41;1.10;;;1.00;;
13708;SDS011;54933;51.908;7.730;2023-07-13T15:28:08;2.97;;;1.10;;
13708;SDS011;54933;51.908;7.730;2023-07-13T15:30:36;9.43;;;1.33;;